Time,TemperatureF,DewpointF,PressureIn,WindDirection,WindDirectionDegrees,WindSpeedMPH,WindSpeedGustMPH,Humidity,HourlyPrecipIn,Conditions,Clouds,dailyrainin,SoftwareType,DateUTC
2013-07-05 00:00:00,54.0,50.8,30.08,East,94,0.0,0.0,89,0.00,,BKN041,0.00,VWS V14.01,2013-07-05 07:00:00,
2013-07-05 00:05:00,53.8,50.3,30.07,East,94,0.0,0.0,88,0.00,,FEW041,0.00,VWS V14.01,2013-07-05 07:05:00,
2013-07-05 00:10:00,53.5,50.0,30.07,East,94,0.0,0.0,88,0.00,,FEW041,0.00,VWS V14.01,2013-07-05 07:10:00,
2013-07-05 00:15:00,53.4,50.2,30.07,East,94,0.0,0.0,89,0.00,,FEW041,0.00,VWS V14.01,2013-07-05 07:15:00,
2013-07-05 00:20:00,53.4,50.2,30.08,East,94,0.0,0.0,89,0.00,,FEW041,0.00,VWS V14.01,2013-07-05 07:20:00,
2013-07-05 00:25:00,53.1,50.0,30.08,East,94,0.0,0.0,89,0.00,,CLR,0.00,VWS V14.01,2013-07-05 07:25:00,
2013-07-05 00:30:00,52.8,49.7,30.07,East,94,0.0,0.0,89,0.00,,CLR,0.00,VWS V14.01,2013-07-05 07:30:00,
2013-07-05 00:35:00,52.5,49.7,30.07,East,94,0.0,0.0,90,0.00,,CLR,0.00,VWS V14.01,2013-07-05 07:35:00,
2013-07-05 00:40:00,52.6,49.8,30.07,East,94,0.0,0.0,90,0.00,,CLR,0.00,VWS V14.01,2013-07-05 07:40:00,
2013-07-05 00:45:00,52.5,49.7,30.07,East,94,0.0,0.0,90,0.00,,FEW041,0.00,VWS V14.01,2013-07-05 07:45:00,
2013-07-05 00:50:00,52.4,49.6,30.06,East,94,0.0,0.0,90,0.00,,FEW041,0.00,VWS V14.01,2013-07-05 07:50:00,
2013-07-05 00:55:00,52.1,49.3,30.06,East,94,0.0,0.0,90,0.00,,FEW041,0.00,VWS V14.01,2013-07-05 07:55:00,
2013-07-05 01:00:00,52.0,49.2,30.06,East,94,0.0,0.0,90,0.00,,FEW041,0.00,VWS V14.01,2013-07-05 08:00:00,
2013-07-05 01:05:00,51.8,49.3,30.06,East,94,0.0,0.0,91,0.00,,CLR,0.00,VWS V14.01,2013-07-05 08:05:00,
2013-07-05 01:10:00,51.4,48.9,30.06,East,94,0.0,0.0,91,0.00,,CLR,0.00,VWS V14.01,2013-07-05 08:10:00,
2013-07-05 01:15:00,51.3,48.8,30.06,East,94,0.0,0.0,91,0.00,,CLR,0.00,VWS V14.01,2013-07-05 08:15:00,
2013-07-05 01:20:00,51.3,48.8,30.06,East,94,0.0,0.0,91,0.00,,CLR,0.00,VWS V14.01,2013-07-05 08:20:00,
2013-07-05 01:25:00,51.4,49.2,30.06,East,94,0.0,0.0,92,0.00,,CLR,0.00,VWS V14.01,2013-07-05 08:25:00,
2013-07-05 01:30:00,51.5,49.0,30.06,East,94,0.0,0.0,91,0.00,,CLR,0.00,VWS V14.01,2013-07-05 08:30:00,
2013-07-05 01:35:00,51.5,49.3,30.06,East,94,0.0,0.0,92,0.00,,CLR,0.00,VWS V14.01,2013-07-05 08:35:00,
2013-07-05 01:40:00,51.4,48.9,30.06,East,94,0.0,0.0,91,0.00,,CLR,0.00,VWS V14.01,2013-07-05 08:40:00,
2013-07-05 01:45:00,51.3,48.8,30.06,East,94,0.0,0.0,91,0.00,,CLR,0.00,VWS V14.01,2013-07-05 08:45:00,
2013-07-05 01:50:00,51.2,48.7,30.06,East,94,0.0,0.0,91,0.00,,CLR,0.00,VWS V14.01,2013-07-05 08:50:00,
2013-07-05 01:55:00,51.1,48.6,30.06,East,94,0.0,0.0,91,0.00,,CLR,0.00,VWS V14.01,2013-07-05 08:55:00,
2013-07-05 02:00:00,51.1,48.9,30.06,East,94,0.0,0.0,92,0.00,,CLR,0.00,VWS V14.01,2013-07-05 09:00:00,
2013-07-05 02:06:00,51.0,48.8,30.06,East,94,0.0,0.0,92,0.00,,CLR,0.00,VWS V14.01,2013-07-05 09:06:00,
2013-07-05 02:11:00,50.8,48.6,30.06,East,94,0.0,0.0,92,0.00,,CLR,0.00,VWS V14.01,2013-07-05 09:11:00,
2013-07-05 02:16:00,50.8,48.6,30.06,East,94,0.0,0.0,92,0.00,,CLR,0.00,VWS V14.01,2013-07-05 09:16:00,
2013-07-05 02:21:00,50.5,48.3,30.06,East,94,0.0,0.0,92,0.00,,CLR,0.00,VWS V14.01,2013-07-05 09:21:00,
2013-07-05 02:26:00,50.4,48.2,30.06,East,94,0.0,0.0,92,0.00,,CLR,0.00,VWS V14.01,2013-07-05 09:26:00,
2013-07-05 02:31:00,50.3,48.1,30.06,East,94,0.0,0.0,92,0.00,,CLR,0.00,VWS V14.01,2013-07-05 09:31:00,
2013-07-05 02:36:00,50.3,48.1,30.06,East,94,0.0,0.0,92,0.00,,CLR,0.00,VWS V14.01,2013-07-05 09:36:00,
2013-07-05 02:41:00,50.3,48.1,30.06,East,94,0.0,0.0,92,0.00,,CLR,0.00,VWS V14.01,2013-07-05 09:41:00,
2013-07-05 02:46:00,50.0,47.8,30.06,East,94,0.0,0.0,92,0.00,,CLR,0.00,VWS V14.01,2013-07-05 09:46:00,
2013-07-05 02:51:00,50.0,47.8,30.06,SE,146,0.0,0.0,92,0.00,,CLR,0.00,VWS V14.01,2013-07-05 09:51:00,
2013-07-05 02:57:00,49.9,47.7,30.06,SSE,147,0.0,0.0,92,0.00,,CLR,0.00,VWS V14.01,2013-07-05 09:57:00,
2013-07-05 03:02:00,49.9,47.7,30.06,SE,146,0.0,0.0,92,0.00,,CLR,0.00,VWS V14.01,2013-07-05 10:02:00,
2013-07-05 03:07:00,49.9,47.7,30.06,SE,146,0.0,0.0,92,0.00,,SCT030,0.00,VWS V14.01,2013-07-05 10:07:00,
2013-07-05 03:12:00,49.9,48.0,30.05,SE,146,0.0,0.0,93,0.00,,SCT030,0.00,VWS V14.01,2013-07-05 10:12:00,
2013-07-05 03:17:00,50.1,48.2,30.05,SE,146,0.0,0.0,93,0.00,,SCT030,0.00,VWS V14.01,2013-07-05 10:17:00,
2013-07-05 03:22:00,50.2,48.3,30.05,SE,146,0.0,0.0,93,0.00,,SCT030,0.00,VWS V14.01,2013-07-05 10:22:00,
2013-07-05 03:27:00,50.5,48.6,30.05,SSE,147,0.0,0.0,93,0.00,,SCT030,0.00,VWS V14.01,2013-07-05 10:27:00,
2013-07-05 03:32:00,50.8,48.8,30.05,SE,146,0.0,0.0,93,0.00,,SCT030,0.00,VWS V14.01,2013-07-05 10:32:00,
2013-07-05 03:37:00,51.0,49.0,30.05,SSE,147,0.0,0.0,93,0.00,,SCT030,0.00,VWS V14.01,2013-07-05 10:37:00,
2013-07-05 03:42:00,51.2,49.2,30.05,SE,146,0.0,0.0,93,0.00,,SCT030,0.00,VWS V14.01,2013-07-05 10:42:00,
2013-07-05 03:47:00,51.3,49.3,30.05,SE,146,0.0,0.0,93,0.00,,SCT030,0.00,VWS V14.01,2013-07-05 10:47:00,
2013-07-05 03:52:00,51.5,49.5,30.05,SE,146,0.0,0.0,93,0.00,,SCT030,0.00,VWS V14.01,2013-07-05 10:52:00,
2013-07-05 03:57:00,51.8,49.5,30.05,SE,146,0.0,0.0,92,0.00,,SCT030,0.00,VWS V14.01,2013-07-05 10:57:00,
2013-07-05 04:02:00,52.0,49.8,30.05,SSE,147,0.0,0.0,92,0.00,,OVC030,0.00,VWS V14.01,2013-07-05 11:02:00,
2013-07-05 04:07:00,52.1,49.8,30.05,SE,146,0.0,0.0,92,0.00,,OVC030,0.00,VWS V14.01,2013-07-05 11:07:00,
2013-07-05 04:12:00,52.2,50.0,30.05,SE,146,0.0,0.0,92,0.00,,OVC030,0.00,VWS V14.01,2013-07-05 11:12:00,
2013-07-05 04:17:00,52.3,50.0,30.05,SE,146,0.0,0.0,92,0.00,,OVC030,0.00,VWS V14.01,2013-07-05 11:17:00,
2013-07-05 04:22:00,52.4,49.8,30.05,SE,146,0.0,0.0,91,0.00,,OVC030,0.00,VWS V14.01,2013-07-05 11:22:00,
2013-07-05 04:27:00,52.4,49.8,30.05,SE,146,0.0,0.0,91,0.00,,OVC030,0.00,VWS V14.01,2013-07-05 11:27:00,
2013-07-05 04:33:00,52.6,50.0,30.05,SE,146,0.0,0.0,91,0.00,,OVC030,0.00,VWS V14.01,2013-07-05 11:33:00,
2013-07-05 04:37:00,52.8,50.2,30.05,SE,146,0.0,0.0,91,0.00,,OVC030,0.00,VWS V14.01,2013-07-05 11:37:00,
2013-07-05 04:42:00,52.9,50.3,30.05,SSE,147,0.0,0.0,91,0.00,,OVC030,0.00,VWS V14.01,2013-07-05 11:42:00,
2013-07-05 04:48:00,53.0,50.5,30.05,SE,146,0.0,0.0,91,0.00,,OVC030,0.00,VWS V14.01,2013-07-05 11:48:00,
2013-07-05 04:53:00,53.0,50.5,30.05,SE,146,0.0,0.0,91,0.00,,OVC030,0.00,VWS V14.01,2013-07-05 11:53:00,
2013-07-05 04:58:00,53.1,50.5,30.05,SE,146,0.0,0.0,91,0.00,,OVC030,0.00,VWS V14.01,2013-07-05 11:58:00,
2013-07-05 05:03:00,53.1,50.5,30.05,SE,146,0.0,0.0,91,0.00,,OVC028,0.00,VWS V14.01,2013-07-05 12:03:00,
2013-07-05 05:08:00,53.2,50.3,30.05,SE,146,0.0,0.0,90,0.00,,OVC028,0.00,VWS V14.01,2013-07-05 12:08:00,
2013-07-05 05:13:00,53.2,50.3,30.05,SE,146,0.0,0.0,90,0.00,,OVC028,0.00,VWS V14.01,2013-07-05 12:13:00,
2013-07-05 05:18:00,53.3,50.5,30.05,SSE,147,0.0,0.0,90,0.00,,OVC028,0.00,VWS V14.01,2013-07-05 12:18:00,
2013-07-05 05:23:00,53.3,50.5,30.05,SSE,147,0.0,0.0,90,0.00,,OVC028,0.00,VWS V14.01,2013-07-05 12:23:00,
2013-07-05 05:28:00,53.4,50.8,30.05,SE,146,0.0,0.0,91,0.00,,OVC028,0.00,VWS V14.01,2013-07-05 12:28:00,
2013-07-05 05:33:00,53.5,50.6,30.05,SE,146,0.0,0.0,90,0.00,,OVC028,0.00,VWS V14.01,2013-07-05 12:33:00,
2013-07-05 05:39:00,53.6,50.7,30.05,SSE,147,0.0,0.0,90,0.00,,OVC028,0.00,VWS V14.01,2013-07-05 12:39:00,
2013-07-05 05:44:00,53.6,50.7,30.05,SSE,147,0.0,0.0,90,0.00,,OVC028,0.00,VWS V14.01,2013-07-05 12:44:00,
2013-07-05 05:49:00,53.8,50.9,30.05,SE,146,0.0,0.0,90,0.00,,OVC028,0.00,VWS V14.01,2013-07-05 12:49:00,
2013-07-05 05:54:00,53.9,51.0,30.05,SE,146,0.0,0.0,90,0.00,,OVC028,0.00,VWS V14.01,2013-07-05 12:54:00,
2013-07-05 05:59:00,53.9,51.0,30.05,SSE,147,0.0,0.0,90,0.00,,OVC028,0.00,VWS V14.01,2013-07-05 12:59:00,
2013-07-05 06:04:00,54.0,51.1,30.05,SE,146,0.0,0.0,90,0.00,,OVC028,0.00,VWS V14.01,2013-07-05 13:04:00,
2013-07-05 06:09:00,54.0,51.1,30.05,SE,146,0.0,0.0,90,0.00,,OVC028,0.00,VWS V14.01,2013-07-05 13:09:00,
2013-07-05 06:14:00,54.1,51.2,30.05,SSE,147,0.0,0.0,90,0.00,,OVC028,0.00,VWS V14.01,2013-07-05 13:14:00,
2013-07-05 06:19:00,54.2,51.3,30.05,SE,146,0.0,0.0,90,0.00,,OVC028,0.00,VWS V14.01,2013-07-05 13:19:00,
2013-07-05 06:24:00,54.3,51.4,30.05,SE,146,0.0,0.0,90,0.00,,OVC030,0.00,VWS V14.01,2013-07-05 13:24:00,
2013-07-05 06:29:00,54.5,51.6,30.05,SE,146,0.0,0.0,90,0.00,,OVC030,0.00,VWS V14.01,2013-07-05 13:29:00,
2013-07-05 06:34:00,54.5,51.6,30.05,SSE,147,0.0,0.0,90,0.00,,OVC030,0.00,VWS V14.01,2013-07-05 13:34:00,
2013-07-05 06:39:00,54.6,51.7,30.05,SSE,147,1.0,0.0,90,0.00,,OVC030,0.00,VWS V14.01,2013-07-05 13:39:00,
2013-07-05 06:44:00,54.8,51.9,30.05,SE,146,0.0,0.0,90,0.00,,OVC030,0.00,VWS V14.01,2013-07-05 13:44:00,
2013-07-05 06:49:00,54.9,52.0,30.05,SE,146,0.0,0.0,90,0.00,,OVC030,0.00,VWS V14.01,2013-07-05 13:49:00,
2013-07-05 06:54:00,55.1,51.9,30.05,SSE,147,0.0,0.0,89,0.00,,OVC030,0.00,VWS V14.01,2013-07-05 13:54:00,
2013-07-05 07:00:00,55.2,52.0,30.05,SE,146,0.0,0.0,89,0.00,,OVC030,0.00,VWS V14.01,2013-07-05 14:00:00,
2013-07-05 07:05:00,55.5,52.3,30.05,SE,146,0.0,0.0,89,0.00,,OVC030,0.00,VWS V14.01,2013-07-05 14:05:00,
2013-07-05 07:10:00,55.9,52.7,30.05,SSE,147,0.0,0.0,89,0.00,,OVC030,0.00,VWS V14.01,2013-07-05 14:10:00,
2013-07-05 07:15:00,56.1,52.6,30.05,SE,146,0.0,0.0,88,0.00,,OVC030,0.00,VWS V14.01,2013-07-05 14:15:00,
2013-07-05 07:20:00,56.4,52.9,30.06,SE,146,0.0,0.0,88,0.00,,OVC030,0.00,VWS V14.01,2013-07-05 14:20:00,
2013-07-05 07:25:00,56.7,52.9,30.06,SSE,147,0.0,0.0,87,0.00,,OVC032,0.00,VWS V14.01,2013-07-05 14:25:00,
2013-07-05 07:30:00,56.9,52.8,30.05,SE,146,0.0,0.0,86,0.00,,OVC032,0.00,VWS V14.01,2013-07-05 14:30:00,
2013-07-05 07:35:00,57.1,53.0,30.05,SE,146,0.0,0.0,86,0.00,,OVC032,0.00,VWS V14.01,2013-07-05 14:35:00,
2013-07-05 07:40:00,57.3,53.2,30.05,SSE,147,0.0,0.0,86,0.00,,OVC032,0.00,VWS V14.01,2013-07-05 14:40:00,
2013-07-05 07:45:00,57.4,52.9,30.05,SSE,147,0.0,0.0,85,0.00,,OVC034,0.00,VWS V14.01,2013-07-05 14:45:00,
2013-07-05 07:50:00,57.5,52.7,30.05,SSE,147,0.0,0.0,84,0.00,,OVC034,0.00,VWS V14.01,2013-07-05 14:50:00,
2013-07-05 07:55:00,57.8,53.0,30.05,SSE,147,0.0,0.0,84,0.00,,OVC034,0.00,VWS V14.01,2013-07-05 14:55:00,
2013-07-05 08:00:00,58.1,53.3,30.05,SE,146,0.0,0.0,84,0.00,,OVC034,0.00,VWS V14.01,2013-07-05 15:00:00,
2013-07-05 08:05:00,58.3,53.2,30.05,SSE,147,0.0,0.0,83,0.00,,OVC034,0.00,VWS V14.01,2013-07-05 15:05:00,
2013-07-05 08:10:00,58.6,53.5,30.05,SSE,147,0.0,0.0,83,0.00,,OVC034,0.00,VWS V14.01,2013-07-05 15:10:00,
2013-07-05 08:16:00,58.9,53.4,30.05,SSE,147,0.0,0.0,82,0.00,,OVC034,0.00,VWS V14.01,2013-07-05 15:16:00,
2013-07-05 08:21:00,59.2,53.7,30.05,SSE,147,0.0,0.0,82,0.00,,OVC034,0.00,VWS V14.01,2013-07-05 15:21:00,
2013-07-05 08:26:00,59.4,53.9,30.05,SSE,147,0.0,0.0,82,0.00,,OVC034,0.00,VWS V14.01,2013-07-05 15:26:00,
2013-07-05 08:31:00,59.6,53.8,30.05,South,173,1.0,0.0,81,0.00,,OVC034,0.00,VWS V14.01,2013-07-05 15:31:00,
2013-07-05 08:36:00,59.5,53.7,30.05,South,173,0.0,0.0,81,0.00,,OVC034,0.00,VWS V14.01,2013-07-05 15:36:00,
2013-07-05 08:41:00,59.4,53.9,30.05,South,173,0.0,0.0,82,0.00,,OVC034,0.00,VWS V14.01,2013-07-05 15:41:00,
2013-07-05 08:46:00,59.6,54.1,30.05,South,173,0.0,0.0,82,0.00,,OVC034,0.00,VWS V14.01,2013-07-05 15:46:00,
2013-07-05 08:50:00,60.1,54.3,30.05,South,175,0.0,0.0,81,0.00,,OVC034,0.00,VWS V14.01,2013-07-05 15:50:00,
2013-07-05 08:55:00,60.5,54.3,30.05,South,175,0.0,0.0,80,0.00,,OVC034,0.00,VWS V14.01,2013-07-05 15:55:00,
2013-07-05 09:00:00,60.3,54.1,30.05,South,185,0.0,0.0,80,0.00,,OVC034,0.00,VWS V14.01,2013-07-05 16:00:00,
2013-07-05 09:05:00,60.4,54.9,30.05,SSW,211,2.0,0.0,82,0.00,,OVC032,0.00,VWS V14.01,2013-07-05 16:05:00,
2013-07-05 09:10:00,60.5,54.3,30.06,SSW,192,0.0,0.0,80,0.00,,OVC032,0.00,VWS V14.01,2013-07-05 16:10:00,
2013-07-05 09:15:00,60.5,54.7,30.06,SE,126,0.0,0.0,81,0.00,,OVC032,0.00,VWS V14.01,2013-07-05 16:15:00,
2013-07-05 09:20:00,60.8,54.9,30.06,SE,126,0.0,0.0,81,0.00,,OVC032,0.00,VWS V14.01,2013-07-05 16:20:00,
2013-07-05 09:25:00,61.1,55.2,30.05,SE,126,0.0,0.0,81,0.00,,OVC032,0.00,VWS V14.01,2013-07-05 16:25:00,
2013-07-05 09:30:00,61.4,55.5,30.05,South,172,0.0,0.0,81,0.00,,OVC032,0.00,VWS V14.01,2013-07-05 16:30:00,
2013-07-05 09:35:00,61.6,55.4,30.05,SSE,159,0.0,0.0,80,0.00,,OVC032,0.00,VWS V14.01,2013-07-05 16:35:00,
2013-07-05 09:40:00,61.6,55.4,30.05,SSW,203,0.0,0.0,80,0.00,,OVC032,0.00,VWS V14.01,2013-07-05 16:40:00,
2013-07-05 09:45:00,61.6,55.4,30.05,SSW,202,0.0,0.0,80,0.00,,OVC032,0.00,VWS V14.01,2013-07-05 16:45:00,
2013-07-05 09:50:00,61.8,55.6,30.05,SSW,202,0.0,0.0,80,0.00,,OVC032,0.00,VWS V14.01,2013-07-05 16:50:00,
2013-07-05 09:55:00,62.0,55.4,30.05,ESE,104,1.0,0.0,79,0.00,,OVC032,0.00,VWS V14.01,2013-07-05 16:55:00,
2013-07-05 09:59:00,61.9,55.7,30.05,ESE,103,0.0,0.0,80,0.00,,OVC032,0.00,VWS V14.01,2013-07-05 16:59:00,
2013-07-05 10:04:00,62.0,55.4,30.05,ESE,111,0.0,0.0,79,0.00,,OVC030,0.00,VWS V14.01,2013-07-05 17:04:00,
2013-07-05 10:09:00,62.3,56.1,30.05,ESE,111,0.0,0.0,80,0.00,,OVC030,0.00,VWS V14.01,2013-07-05 17:09:00,
2013-07-05 10:14:00,62.2,55.3,30.05,East,101,0.0,0.0,78,0.00,,OVC030,0.00,VWS V14.01,2013-07-05 17:14:00,
2013-07-05 10:15:00,62.2,55.6,30.05,East,101,0.0,0.0,79,0.00,,OVC030,0.00,VWS V14.01,2013-07-05 17:15:00,
2013-07-05 10:20:00,62.2,55.3,30.05,East,99,0.0,0.0,78,0.00,,OVC030,0.00,VWS V14.01,2013-07-05 17:20:00,
2013-07-05 10:25:00,62.3,55.7,30.05,ESE,113,0.0,0.0,79,0.00,,OVC030,0.00,VWS V14.01,2013-07-05 17:25:00,
2013-07-05 10:30:00,62.5,55.6,30.05,SSE,153,0.0,0.0,78,0.00,,OVC030,0.00,VWS V14.01,2013-07-05 17:30:00,
2013-07-05 10:35:00,62.3,55.0,30.05,ENE,78,1.0,0.0,77,0.00,,OVC030,0.00,VWS V14.01,2013-07-05 17:35:00,
2013-07-05 10:40:00,62.4,55.8,30.05,ESE,102,0.0,0.0,79,0.00,,OVC030,0.00,VWS V14.01,2013-07-05 17:40:00,
2013-07-05 10:45:00,62.6,55.7,30.05,ESE,122,0.0,0.0,78,0.00,,OVC028,0.00,VWS V14.01,2013-07-05 17:45:00,
2013-07-05 10:50:00,62.9,56.3,30.04,ESE,103,1.0,0.0,79,0.00,,OVC028,0.00,VWS V14.01,2013-07-05 17:50:00,
2013-07-05 10:55:00,62.9,55.6,30.04,East,83,0.0,0.0,77,0.00,,OVC028,0.00,VWS V14.01,2013-07-05 17:55:00,
2013-07-05 11:00:00,63.2,55.5,30.05,East,80,0.0,0.0,76,0.00,,OVC028,0.00,VWS V14.01,2013-07-05 18:00:00,
2013-07-05 11:05:00,63.4,55.7,30.05,East,101,0.0,0.0,76,0.00,,OVC028,0.00,VWS V14.01,2013-07-05 18:05:00,
2013-07-05 11:10:00,63.4,55.3,30.05,ESE,115,2.0,0.0,75,0.00,,OVC028,0.00,VWS V14.01,2013-07-05 18:10:00,
2013-07-05 11:15:00,63.2,55.5,30.05,ESE,113,2.0,0.0,76,0.00,,OVC028,0.00,VWS V14.01,2013-07-05 18:15:00,
2013-07-05 11:20:00,63.2,55.5,30.05,ESE,110,1.0,0.0,76,0.00,,OVC028,0.00,VWS V14.01,2013-07-05 18:20:00,
2013-07-05 11:25:00,63.3,55.2,30.05,ESE,107,3.0,0.0,75,0.00,,OVC028,0.00,VWS V14.01,2013-07-05 18:25:00,
2013-07-05 11:30:00,63.3,55.2,30.05,ESE,115,0.0,0.0,75,0.00,,OVC028,0.00,VWS V14.01,2013-07-05 18:30:00,
2013-07-05 11:35:00,63.7,55.6,30.05,ENE,63,0.0,0.0,75,0.00,,OVC028,0.00,VWS V14.01,2013-07-05 18:35:00,
2013-07-05 11:40:00,63.7,55.6,30.04,East,90,1.0,0.0,75,0.00,,OVC028,0.00,VWS V14.01,2013-07-05 18:40:00,
2013-07-05 11:45:00,63.7,55.3,30.04,ESE,105,0.0,0.0,74,0.00,,OVC028,0.00,VWS V14.01,2013-07-05 18:45:00,
2013-07-05 11:50:00,63.5,55.4,30.05,SW,227,1.0,0.0,75,0.00,,OVC028,0.00,VWS V14.01,2013-07-05 18:50:00,
2013-07-05 11:55:00,63.3,55.2,30.05,SSW,195,1.0,0.0,75,0.00,,OVC028,0.00,VWS V14.01,2013-07-05 18:55:00,
2013-07-05 12:00:00,63.1,55.4,30.04,SSW,205,2.0,0.0,76,0.00,,OVC028,0.00,VWS V14.01,2013-07-05 19:00:00,
2013-07-05 12:05:00,62.9,54.9,30.04,SSW,213,2.0,0.0,75,0.00,,OVC028,0.00,VWS V14.01,2013-07-05 19:05:00,
2013-07-05 12:10:00,62.9,55.6,30.04,SW,227,0.0,0.0,77,0.00,,OVC028,0.00,VWS V14.01,2013-07-05 19:10:00,
2013-07-05 12:15:00,63.2,55.9,30.04,South,176,0.0,0.0,77,0.00,,OVC028,0.00,VWS V14.01,2013-07-05 19:15:00,
2013-07-05 12:20:00,63.4,55.7,30.04,South,176,0.0,0.0,76,0.00,,OVC028,0.00,VWS V14.01,2013-07-05 19:20:00,
2013-07-05 12:25:00,63.7,56.4,30.04,SSW,199,1.0,0.0,77,0.00,,OVC028,0.00,VWS V14.01,2013-07-05 19:25:00,
2013-07-05 12:30:00,63.6,55.2,30.05,SE,144,1.0,0.0,74,0.00,,OVC028,0.00,VWS V14.01,2013-07-05 19:30:00,
2013-07-05 12:35:00,63.6,55.5,30.04,South,190,1.0,0.0,75,0.00,,OVC028,0.00,VWS V14.01,2013-07-05 19:35:00,
2013-07-05 12:40:00,63.5,55.8,30.05,SSW,209,2.0,0.0,76,0.00,,OVC028,0.00,VWS V14.01,2013-07-05 19:40:00,
2013-07-05 12:45:00,63.8,55.4,30.05,South,190,2.0,0.0,74,0.00,,OVC035,0.00,VWS V14.01,2013-07-05 19:45:00,
2013-07-05 12:50:00,63.9,55.8,30.04,WSW,247,2.0,0.0,75,0.00,,OVC035,0.00,VWS V14.01,2013-07-05 19:50:00,
2013-07-05 12:55:00,63.9,55.5,30.04,SW,229,0.0,0.0,74,0.00,,OVC035,0.00,VWS V14.01,2013-07-05 19:55:00,
2013-07-05 13:00:00,64.1,56.4,30.04,SW,234,2.0,0.0,76,0.00,,OVC035,0.00,VWS V14.01,2013-07-05 20:00:00,
2013-07-05 13:05:00,64.3,55.8,30.04,SSW,206,0.0,0.0,74,0.00,,OVC028,0.00,VWS V14.01,2013-07-05 20:05:00,
2013-07-05 13:10:00,64.8,56.3,30.04,WNW,294,0.0,0.0,74,0.00,,OVC028,0.00,VWS V14.01,2013-07-05 20:10:00,
2013-07-05 13:15:00,65.1,55.9,30.04,WSW,254,0.0,0.0,72,0.00,,OVC028,0.00,VWS V14.01,2013-07-05 20:15:00,
2013-07-05 13:20:00,65.6,56.3,30.04,WSW,253,0.0,0.0,72,0.00,,OVC028,0.00,VWS V14.01,2013-07-05 20:20:00,
2013-07-05 13:25:00,66.2,56.5,30.04,WSW,239,2.0,0.0,71,0.00,,OVC033,0.00,VWS V14.01,2013-07-05 20:25:00,
2013-07-05 13:30:00,66.1,56.0,30.03,West,275,0.0,0.0,70,0.00,,OVC033,0.00,VWS V14.01,2013-07-05 20:30:00,
2013-07-05 13:35:00,66.2,56.5,30.03,ESE,113,0.0,0.0,71,0.00,,OVC033,0.00,VWS V14.01,2013-07-05 20:35:00,
2013-07-05 13:40:00,66.7,57.0,30.03,SE,128,3.0,0.0,71,0.00,,OVC033,0.00,VWS V14.01,2013-07-05 20:40:00,
2013-07-05 13:45:00,66.9,56.4,30.03,South,171,1.0,0.0,69,0.00,,OVC033,0.00,VWS V14.01,2013-07-05 20:45:00,
2013-07-05 13:50:00,66.8,56.3,30.03,ENE,73,2.0,0.0,69,0.00,,OVC033,0.00,VWS V14.01,2013-07-05 20:50:00,
2013-07-05 13:55:00,67.1,56.6,30.03,East,95,0.0,0.0,69,0.00,,OVC033,0.00,VWS V14.01,2013-07-05 20:55:00,
2013-07-05 14:00:00,67.5,56.2,30.03,WSW,246,0.0,0.0,67,0.00,,OVC033,0.00,VWS V14.01,2013-07-05 21:00:00,
2013-07-05 14:05:00,67.8,57.3,30.03,SSW,199,1.0,0.0,69,0.00,,OVC035,0.00,VWS V14.01,2013-07-05 21:05:00,
2013-07-05 14:10:00,68.1,56.7,30.03,North,5,2.0,0.0,67,0.00,,OVC035,0.00,VWS V14.01,2013-07-05 21:10:00,
2013-07-05 14:15:00,69.1,57.7,30.03,WSW,242,1.0,0.0,67,0.00,,OVC035,0.00,VWS V14.01,2013-07-05 21:15:00,
2013-07-05 14:20:00,69.9,57.2,30.03,ENE,76,2.0,0.0,64,0.00,,OVC035,0.00,VWS V14.01,2013-07-05 21:20:00,
2013-07-05 14:25:00,69.7,57.0,30.02,SW,236,2.0,0.0,64,0.00,,OVC043,0.00,VWS V14.01,2013-07-05 21:25:00,
2013-07-05 14:30:00,69.7,56.6,30.02,SW,215,3.0,0.0,63,0.00,,OVC043,0.00,VWS V14.01,2013-07-05 21:30:00,
2013-07-05 14:35:00,69.6,57.8,30.02,South,182,1.0,0.0,66,0.00,,OVC043,0.00,VWS V14.01,2013-07-05 21:35:00,
2013-07-05 14:40:00,69.8,57.5,30.02,South,172,0.0,0.0,65,0.00,,OVC043,0.00,VWS V14.01,2013-07-05 21:40:00,
2013-07-05 14:45:00,69.9,57.6,30.02,ESE,123,1.0,0.0,65,0.00,,BKN043,0.00,VWS V14.01,2013-07-05 21:45:00,
2013-07-05 14:50:00,69.9,56.8,30.02,East,82,2.0,0.0,63,0.00,,BKN043,0.00,VWS V14.01,2013-07-05 21:50:00,
2013-07-05 14:55:00,70.3,57.1,30.01,North,355,0.0,0.0,63,0.00,,BKN043,0.00,VWS V14.01,2013-07-05 21:55:00,
2013-07-05 15:00:00,70.5,56.4,30.01,ESE,107,1.0,0.0,61,0.00,,BKN043,0.00,VWS V14.01,2013-07-05 22:00:00,
2013-07-05 15:05:00,70.0,56.0,30.01,ESE,113,0.0,0.0,61,0.00,,BKN045,0.00,VWS V14.01,2013-07-05 22:05:00,
2013-07-05 15:10:00,70.0,56.0,30.01,ESE,102,2.0,0.0,61,0.00,,BKN045,0.00,VWS V14.01,2013-07-05 22:10:00,
2013-07-05 15:15:00,70.1,56.5,30.01,ESE,102,0.0,0.0,62,0.00,,BKN045,0.00,VWS V14.01,2013-07-05 22:15:00,
2013-07-05 15:20:00,70.5,57.3,30.01,NE,54,0.0,0.0,63,0.00,,BKN045,0.00,VWS V14.01,2013-07-05 22:20:00,
2013-07-05 15:25:00,71.1,56.5,30.00,East,94,0.0,0.0,60,0.00,,OVC041,0.00,VWS V14.01,2013-07-05 22:25:00,
2013-07-05 15:30:00,71.5,56.9,30.00,West,270,1.0,0.0,60,0.00,,OVC041,0.00,VWS V14.01,2013-07-05 22:30:00,
2013-07-05 15:35:00,71.9,56.8,30.00,East,96,3.0,0.0,59,0.00,,OVC041,0.00,VWS V14.01,2013-07-05 22:35:00,
2013-07-05 15:40:00,71.5,56.9,30.00,East,90,0.0,0.0,60,0.00,,OVC041,0.00,VWS V14.01,2013-07-05 22:40:00,
2013-07-05 15:45:00,71.6,57.5,30.00,SE,130,2.0,0.0,61,0.00,,BKN039,0.00,VWS V14.01,2013-07-05 22:45:00,
2013-07-05 15:50:00,71.9,58.6,30.00,East,98,1.0,0.0,63,0.00,,BKN039,0.00,VWS V14.01,2013-07-05 22:50:00,
2013-07-05 15:55:00,71.9,57.7,29.99,SE,133,0.0,0.0,61,0.00,,BKN039,0.00,VWS V14.01,2013-07-05 22:55:00,
2013-07-05 16:00:00,71.7,56.6,29.99,SW,221,3.0,0.0,59,0.00,,BKN039,0.00,VWS V14.01,2013-07-05 23:00:00,
2013-07-05 16:05:00,71.9,57.3,29.99,NE,55,3.0,0.0,60,0.00,,BKN048,0.00,VWS V14.01,2013-07-05 23:05:00,
2013-07-05 16:10:00,71.9,56.8,29.99,NNW,337,1.0,0.0,59,0.00,,BKN048,0.00,VWS V14.01,2013-07-05 23:10:00,
2013-07-05 16:15:00,71.9,57.7,29.99,ESE,109,3.0,0.0,61,0.00,,BKN048,0.00,VWS V14.01,2013-07-05 23:15:00,
2013-07-05 16:20:00,71.8,56.7,29.98,East,93,1.0,0.0,59,0.00,,BKN048,0.00,VWS V14.01,2013-07-05 23:20:00,
2013-07-05 16:25:00,72.0,56.9,29.98,SE,132,5.0,0.0,59,0.00,,BKN050,0.00,VWS V14.01,2013-07-05 23:25:00,
2013-07-05 16:30:00,72.5,56.9,29.98,SE,128,5.0,0.0,58,0.00,,BKN050,0.00,VWS V14.01,2013-07-05 23:30:00,
2013-07-05 16:35:00,72.4,57.3,29.98,ENE,67,3.0,0.0,59,0.00,,BKN050,0.00,VWS V14.01,2013-07-05 23:35:00,
2013-07-05 16:40:00,72.6,57.5,29.98,ESE,102,2.0,0.0,59,0.00,,BKN050,0.00,VWS V14.01,2013-07-05 23:40:00,
2013-07-05 16:45:00,72.6,57.0,29.98,East,84,3.0,0.0,58,0.00,,OVC050,0.00,VWS V14.01,2013-07-05 23:45:00,
2013-07-05 16:50:00,72.2,57.1,29.98,ESE,122,4.0,0.0,59,0.00,,OVC050,0.00,VWS V14.01,2013-07-05 23:50:00,
2013-07-05 16:55:00,72.5,56.9,29.98,SE,130,4.0,0.0,58,0.00,,OVC050,0.00,VWS V14.01,2013-07-05 23:55:00,
2013-07-05 17:00:00,72.0,56.9,29.98,ESE,115,6.0,0.0,59,0.00,,OVC050,0.00,VWS V14.01,2013-07-06 00:00:00,
2013-07-05 17:05:00,71.3,56.7,29.98,ESE,107,3.0,0.0,60,0.00,,OVC050,0.00,VWS V14.01,2013-07-06 00:05:00,
2013-07-05 17:10:00,71.3,56.7,29.98,East,100,3.0,0.0,60,0.00,,OVC050,0.00,VWS V14.01,2013-07-06 00:10:00,
2013-07-05 17:15:00,71.7,57.1,29.98,NE,44,4.0,0.0,60,0.00,,OVC050,0.00,VWS V14.01,2013-07-06 00:15:00,
2013-07-05 17:20:00,71.5,56.9,29.98,SE,129,2.0,0.0,60,0.00,,OVC050,0.00,VWS V14.01,2013-07-06 00:20:00,
2013-07-05 17:25:00,71.3,56.7,29.97,ESE,103,10.0,0.0,60,0.00,,BKN050,0.00,VWS V14.01,2013-07-06 00:25:00,
2013-07-05 17:30:00,71.5,56.9,29.97,East,98,7.0,0.0,60,0.00,,BKN050,0.00,VWS V14.01,2013-07-06 00:30:00,
2013-07-05 17:35:00,71.6,57.0,29.97,East,101,9.0,0.0,60,0.00,,BKN050,0.00,VWS V14.01,2013-07-06 00:35:00,
2013-07-05 17:40:00,71.1,56.5,29.97,SE,128,11.0,0.0,60,0.00,,BKN050,0.00,VWS V14.01,2013-07-06 00:40:00,
2013-07-05 17:45:00,71.0,56.0,29.97,East,86,7.0,0.0,59,0.00,,BKN050,0.00,VWS V14.01,2013-07-06 00:45:00,
2013-07-05 17:50:00,70.8,56.7,29.97,ESE,113,3.0,0.0,61,0.00,,BKN050,0.00,VWS V14.01,2013-07-06 00:50:00,
2013-07-05 17:55:00,70.6,56.5,29.97,ESE,105,4.0,0.0,61,0.00,,BKN050,0.00,VWS V14.01,2013-07-06 00:55:00,
2013-07-05 18:00:00,70.5,56.0,29.97,ENE,59,7.0,0.0,60,0.00,,BKN050,0.00,VWS V14.01,2013-07-06 01:00:00,
2013-07-05 18:05:00,70.6,57.0,29.97,ESE,105,12.0,0.0,62,0.00,,SCT048,0.00,VWS V14.01,2013-07-06 01:05:00,
2013-07-05 18:10:00,70.3,56.2,29.97,ESE,107,10.0,0.0,61,0.00,,SCT048,0.00,VWS V14.01,2013-07-06 01:10:00,
2013-07-05 18:15:00,70.2,56.1,29.97,ESE,113,7.0,0.0,61,0.00,,SCT048,0.00,VWS V14.01,2013-07-06 01:15:00,
2013-07-05 18:20:00,70.1,56.5,29.97,ESE,123,5.0,0.0,62,0.00,,SCT048,0.00,VWS V14.01,2013-07-06 01:20:00,
2013-07-05 18:25:00,70.2,56.6,29.97,ESE,119,2.0,0.0,62,0.00,,FEW048,0.00,VWS V14.01,2013-07-06 01:25:00,
2013-07-05 18:30:00,70.6,56.5,29.97,ESE,111,8.0,0.0,61,0.00,,FEW048,0.00,VWS V14.01,2013-07-06 01:30:00,
2013-07-05 18:35:00,69.9,56.3,29.97,ESE,110,7.0,0.0,62,0.00,,FEW048,0.00,VWS V14.01,2013-07-06 01:35:00,
2013-07-05 18:40:00,69.7,56.1,29.97,ESE,104,4.0,0.0,62,0.00,,FEW048,0.00,VWS V14.01,2013-07-06 01:40:00,
2013-07-05 18:45:00,69.4,56.3,29.96,ESE,108,5.0,0.0,63,0.00,,CLR,0.00,VWS V14.01,2013-07-06 01:45:00,
2013-07-05 18:50:00,69.3,56.2,29.96,ESE,113,10.0,0.0,63,0.00,,CLR,0.00,VWS V14.01,2013-07-06 01:50:00,
2013-07-05 18:55:00,69.0,56.3,29.96,ESE,109,2.0,0.0,64,0.00,,CLR,0.00,VWS V14.01,2013-07-06 01:55:00,
2013-07-05 19:00:00,69.0,56.8,29.96,East,82,3.0,0.0,65,0.00,,CLR,0.00,VWS V14.01,2013-07-06 02:00:00,
2013-07-05 19:05:00,68.9,56.2,29.96,ESE,116,4.0,0.0,64,0.00,,CLR,0.00,VWS V14.01,2013-07-06 02:05:00,
2013-07-05 19:10:00,68.6,56.4,29.96,East,82,4.0,0.0,65,0.00,,CLR,0.00,VWS V14.01,2013-07-06 02:10:00,
2013-07-05 19:15:00,68.4,56.2,29.96,East,88,2.0,0.0,65,0.00,,CLR,0.00,VWS V14.01,2013-07-06 02:15:00,
2013-07-05 19:20:00,68.1,56.3,29.97,SE,125,7.0,0.0,66,0.00,,CLR,0.00,VWS V14.01,2013-07-06 02:20:00,
2013-07-05 19:25:00,68.0,56.2,29.97,East,101,4.0,0.0,66,0.00,,CLR,0.00,VWS V14.01,2013-07-06 02:25:00,
2013-07-05 19:30:00,67.9,56.1,29.97,East,101,3.0,0.0,66,0.00,,CLR,0.00,VWS V14.01,2013-07-06 02:30:00,
2013-07-05 19:35:00,67.9,56.1,29.97,SE,130,3.0,0.0,66,0.00,,CLR,0.00,VWS V14.01,2013-07-06 02:35:00,
2013-07-05 19:40:00,67.6,55.8,29.97,East,82,7.0,0.0,66,0.00,,CLR,0.00,VWS V14.01,2013-07-06 02:40:00,
2013-07-05 19:45:00,67.2,55.9,29.97,East,95,9.0,0.0,67,0.00,,CLR,0.00,VWS V14.01,2013-07-06 02:45:00,
2013-07-05 19:50:00,66.7,55.8,29.97,ESE,105,6.0,0.0,68,0.00,,CLR,0.00,VWS V14.01,2013-07-06 02:50:00,
2013-07-05 19:55:00,66.3,55.4,29.97,East,88,4.0,0.0,68,0.00,,CLR,0.00,VWS V14.01,2013-07-06 02:55:00,
2013-07-05 20:00:00,66.2,55.7,29.97,ESE,113,4.0,0.0,69,0.00,,CLR,0.00,VWS V14.01,2013-07-06 03:00:00,
2013-07-05 20:05:00,66.0,55.5,29.97,ESE,113,3.0,0.0,69,0.00,,CLR,0.00,VWS V14.01,2013-07-06 03:05:00,
2013-07-05 20:10:00,66.0,56.0,29.97,SSE,157,0.0,0.0,70,0.00,,CLR,0.00,VWS V14.01,2013-07-06 03:10:00,
2013-07-05 20:15:00,65.7,55.3,29.97,SE,128,4.0,0.0,69,0.00,,CLR,0.00,VWS V14.01,2013-07-06 03:15:00,
2013-07-05 20:16:00,65.7,55.3,29.97,ESE,121,3.0,0.0,69,0.00,,CLR,0.00,VWS V14.01,2013-07-06 03:16:00,
2013-07-05 20:21:00,65.2,55.2,29.97,ESE,111,3.0,0.0,70,0.00,,CLR,0.00,VWS V14.01,2013-07-06 03:21:00,
2013-07-05 20:26:00,64.6,55.0,29.97,WSW,241,2.0,0.0,71,0.00,,CLR,0.00,VWS V14.01,2013-07-06 03:26:00,
2013-07-05 20:31:00,64.1,54.9,29.97,South,183,0.0,0.0,72,0.00,,CLR,0.00,VWS V14.01,2013-07-06 03:31:00,
2013-07-05 20:36:00,63.6,54.8,29.97,ESE,123,2.0,0.0,73,0.00,,CLR,0.00,VWS V14.01,2013-07-06 03:36:00,
2013-07-05 20:41:00,63.3,54.9,29.97,ESE,123,1.0,0.0,74,0.00,,CLR,0.00,VWS V14.01,2013-07-06 03:41:00,
2013-07-05 20:46:00,62.9,54.9,29.97,SSE,155,0.0,0.0,75,0.00,,CLR,0.00,VWS V14.01,2013-07-06 03:46:00,
2013-07-05 20:51:00,62.7,54.7,29.98,ESE,102,3.0,0.0,75,0.00,,CLR,0.00,VWS V14.01,2013-07-06 03:51:00,
2013-07-05 20:56:00,62.5,54.8,29.98,ESE,117,5.0,0.0,76,0.00,,CLR,0.00,VWS V14.01,2013-07-06 03:56:00,
2013-07-05 21:01:00,62.3,54.7,29.98,ESE,103,1.0,0.0,76,0.00,,CLR,0.00,VWS V14.01,2013-07-06 04:01:00,
2013-07-05 21:06:00,62.0,54.4,29.98,ESE,109,5.0,0.0,76,0.00,,BKN049,0.00,VWS V14.01,2013-07-06 04:06:00,
2013-07-05 21:11:00,61.7,54.1,29.98,East,99,5.0,0.0,76,0.00,,BKN049,0.00,VWS V14.01,2013-07-06 04:11:00,
2013-07-05 21:16:00,61.4,54.1,29.99,East,95,5.0,0.0,77,0.00,,BKN049,0.00,VWS V14.01,2013-07-06 04:16:00,
2013-07-05 21:21:00,61.2,53.9,29.99,ESE,110,5.0,0.0,77,0.00,,BKN049,0.00,VWS V14.01,2013-07-06 04:21:00,
2013-07-05 21:26:00,60.9,54.0,29.99,SE,125,0.0,0.0,78,0.00,,OVC050,0.00,VWS V14.01,2013-07-06 04:26:00,
2013-07-05 21:31:00,60.7,53.8,29.99,East,98,7.0,0.0,78,0.00,,OVC050,0.00,VWS V14.01,2013-07-06 04:31:00,
2013-07-05 21:36:00,60.6,53.7,29.99,East,98,2.0,0.0,78,0.00,,OVC050,0.00,VWS V14.01,2013-07-06 04:36:00,
2013-07-05 21:41:00,60.4,53.9,29.99,ESE,107,0.0,0.0,79,0.00,,OVC050,0.00,VWS V14.01,2013-07-06 04:41:00,
2013-07-05 21:46:00,60.1,53.6,30.00,SE,128,4.0,0.0,79,0.00,,BKN050,0.00,VWS V14.01,2013-07-06 04:46:00,
2013-07-05 21:51:00,60.0,53.5,30.00,ESE,113,5.0,0.0,79,0.00,,BKN050,0.00,VWS V14.01,2013-07-06 04:51:00,
2013-07-05 21:56:00,59.8,53.6,30.00,SE,138,0.0,0.0,80,0.00,,BKN050,0.00,VWS V14.01,2013-07-06 04:56:00,
2013-07-05 22:01:00,59.7,53.5,30.00,East,99,3.0,0.0,80,0.00,,BKN050,0.00,VWS V14.01,2013-07-06 05:01:00,
2013-07-05 22:06:00,59.5,53.3,30.00,ESE,104,2.0,0.0,80,0.00,,FEW050,0.00,VWS V14.01,2013-07-06 05:06:00,
2013-07-05 22:11:00,59.3,53.5,30.00,SE,142,1.0,0.0,81,0.00,,FEW050,0.00,VWS V14.01,2013-07-06 05:11:00,
2013-07-05 22:16:00,59.1,53.3,30.00,East,96,2.0,0.0,81,0.00,,FEW050,0.00,VWS V14.01,2013-07-06 05:16:00,
2013-07-05 22:21:00,59.0,53.2,30.00,SE,134,0.0,0.0,81,0.00,,FEW050,0.00,VWS V14.01,2013-07-06 05:21:00,
2013-07-05 22:26:00,58.8,53.0,30.00,ESE,119,2.0,0.0,81,0.00,,CLR,0.00,VWS V14.01,2013-07-06 05:26:00,
2013-07-05 22:31:00,58.8,53.0,30.00,ESE,111,1.0,0.0,81,0.00,,CLR,0.00,VWS V14.01,2013-07-06 05:31:00,
2013-07-05 22:36:00,58.6,53.1,30.00,SE,132,1.0,0.0,82,0.00,,CLR,0.00,VWS V14.01,2013-07-06 05:36:00,
2013-07-05 22:41:00,58.5,53.0,30.00,ESE,115,2.0,0.0,82,0.00,,CLR,0.00,VWS V14.01,2013-07-06 05:41:00,
2013-07-05 22:46:00,58.5,53.0,30.00,SE,130,0.0,0.0,82,0.00,,CLR,0.00,VWS V14.01,2013-07-06 05:46:00,
2013-07-05 22:51:00,58.4,52.9,30.00,ESE,119,0.0,0.0,82,0.00,,CLR,0.00,VWS V14.01,2013-07-06 05:51:00,
2013-07-05 22:56:00,58.3,52.8,30.00,SSE,159,1.0,0.0,82,0.00,,CLR,0.00,VWS V14.01,2013-07-06 05:56:00,
2013-07-05 23:01:00,58.3,52.8,30.00,South,170,1.0,0.0,82,0.00,,CLR,0.00,VWS V14.01,2013-07-06 06:01:00,
2013-07-05 23:06:00,58.3,52.8,30.00,ESE,117,0.0,0.0,82,0.00,,CLR,0.00,VWS V14.01,2013-07-06 06:06:00,
2013-07-05 23:11:00,58.1,53.0,29.99,ESE,119,1.0,0.0,83,0.00,,CLR,0.00,VWS V14.01,2013-07-06 06:11:00,
2013-07-05 23:16:00,57.9,52.8,29.99,ESE,106,4.0,0.0,83,0.00,,CLR,0.00,VWS V14.01,2013-07-06 06:16:00,
2013-07-05 23:21:00,57.8,52.7,29.99,ESE,115,0.0,0.0,83,0.00,,CLR,0.00,VWS V14.01,2013-07-06 06:21:00,
2013-07-05 23:26:00,57.4,52.6,29.99,ESE,119,0.0,0.0,84,0.00,,CLR,0.00,VWS V14.01,2013-07-06 06:26:00,
2013-07-05 23:31:00,57.1,52.3,29.99,ESE,104,2.0,0.0,84,0.00,,CLR,0.00,VWS V14.01,2013-07-06 06:31:00,
2013-07-05 23:36:00,57.0,52.2,29.99,ESE,117,0.0,0.0,84,0.00,,CLR,0.00,VWS V14.01,2013-07-06 06:36:00,
2013-07-05 23:41:00,56.7,52.2,29.99,ESE,118,0.0,0.0,85,0.00,,CLR,0.00,VWS V14.01,2013-07-06 06:41:00,
2013-07-05 23:46:00,56.4,52.0,29.99,ESE,119,0.0,0.0,85,0.00,,CLR,0.00,VWS V14.01,2013-07-06 06:46:00,
2013-07-05 23:51:00,56.0,51.9,29.99,ESE,117,0.0,0.0,86,0.00,,CLR,0.00,VWS V14.01,2013-07-06 06:51:00,
2013-07-05 23:56:00,55.8,51.7,29.99,ESE,117,0.0,0.0,86,0.00,,CLR,0.00,VWS V14.01,2013-07-06 06:56:00,